Detall de PIREP

Printer-friendly versionPDF version

[2017/08/15 04:40:00]
Flight IATA:CT0001
Pilot Number:041
Company ICAO:CAT
Aircraft Type:B738/F
PAX:121
Departing Airport: LEIB
Destination Airport: LEGE
Alternate Airport:LEVC
Online: VATSIM
Route:EPAMA A293 EBROX/N0345F230 DCT LATRO H110 MAMUK
Flight Level:FL220
No Slew and time accel
No pause
Crash detect
Detect pilot in Cockpit between each 30 and 45 minutes
04:40 Zero fuel Weight: 135504 Lbs, Fuel Weight: 34358 Lbs
04:40 VATSIM:LEIB 150430Z 02005KT 9999 BKN014 25/22 Q1016 NOSIG
04:40 VATSIM:LEGE 150430Z 00000KT 9999 FEW020 15/14 Q1019 NOSIG
04:41 VOICE CATALONIAN
04:52 Parking Brakes off
04:58 Take-off
04:58 Take off Weight: 169008 Lbs
04:58 Wind: 183º @ 006 Knots Heading: 062º
04:58 POS N38º 52´ 42´´ E001º 23´ 12´´
04:58 Gear Up: 175 Knots
04:58 Flaps:3 at 175 Knots
04:58 Flaps:2 at 178 Knots
04:59 Flaps:1 at 218 Knots
04:59 Flaps:0 at 221 Knots
05:08 TOC
05:08 Fuel Weight: 30839 Lb
05:13 Wind:276º@036 Knots Heading: 348º Ground Speed: 408 Knots Altitude 21942 ft
05:28 Wind:302º@040 Knots Heading: 010º Ground Speed: 403 Knots Altitude 21942 ft
05:29 TOD
05:29 Fuel Weight: 28365 Lb
05:36 Flaps:1 at 257 Knots
05:36 Flaps:3 at 238 Knots
05:37 Flaps:4 at 213 Knots
05:43 Wind:282º@002 Knots Heading: 067º Ground Speed: 197 Knots Altitude 2969 ft
05:43 Flaps:5 at 190 Knots
05:45 Flaps:6 at 187 Knots
05:46 Gear Down: 151 Knots
05:46 Flaps:8 at 150 Knots
05:47 TouchDown:Rate -211 ft/min Speed: 142 Knots
05:48 VATSIM:LEGE 150530Z 00000KT 9999 FEW020 15/14 Q1020 NOSIG
05:48 Land
05:48 Wind:294º@009 Knots
05:48 Heading: 196º
05:48 Flight Duration: 00:50
05:48 Landing Weight: 162860 Lbs
05:48 POS N41º 53´ 59´´ E002º 45´ 36´´
05:51 Parking brakes on
05:51 Block to Block Duration: 00:59
05:51 Final Fuel: 27098 Lbls
05:51 Spent Fuel: 7259 Lbls
05:51 Flight Length: 279 NM
05:51 TOD Land Length: 84 NM

Exportar CSV

Powered by Drupal - Modified by Danger4k